sensor_id;sensor_type;location;lat;lon;timestamp;temperature;humidity
23147;DHT22;11742;53.532;-1.478;2023-02-28T00:00:15;11.20;83.60
23147;DHT22;11742;53.532;-1.478;2023-02-28T00:03:00;11.20;83.70
23147;DHT22;11742;53.532;-1.478;2023-02-28T00:05:44;11.20;83.60
23147;DHT22;11742;53.532;-1.478;2023-02-28T00:08:29;11.20;83.60
23147;DHT22;11742;53.532;-1.478;2023-02-28T00:11:13;11.20;83.60
23147;DHT22;11742;53.532;-1.478;2023-02-28T00:13:58;11.20;83.60
23147;DHT22;11742;53.532;-1.478;2023-02-28T00:16:42;11.10;83.70
23147;DHT22;11742;53.532;-1.478;2023-02-28T00:19:26;11.10;83.70
23147;DHT22;11742;53.532;-1.478;2023-02-28T00:22:10;11.10;83.60
23147;DHT22;11742;53.532;-1.478;2023-02-28T00:24:55;11.10;83.60
23147;DHT22;11742;53.532;-1.478;2023-02-28T00:27:39;11.10;83.50
23147;DHT22;11742;53.532;-1.478;2023-02-28T00:30:24;11.10;83.70
23147;DHT22;11742;53.532;-1.478;2023-02-28T00:33:08;11.10;83.60
23147;DHT22;11742;53.532;-1.478;2023-02-28T00:36:00;11.10;83.60
23147;DHT22;11742;53.532;-1.478;2023-02-28T00:38:44;11.10;83.60
23147;DHT22;11742;53.532;-1.478;2023-02-28T00:41:29;11.00;83.50
23147;DHT22;11742;53.532;-1.478;2023-02-28T00:44:13;11.00;83.50
23147;DHT22;11742;53.532;-1.478;2023-02-28T00:46:57;11.10;83.60
23147;DHT22;11742;53.532;-1.478;2023-02-28T00:49:42;11.00;83.60
23147;DHT22;11742;53.532;-1.478;2023-02-28T00:52:26;11.00;83.50
23147;DHT22;11742;53.532;-1.478;2023-02-28T00:55:11;11.00;83.50
23147;DHT22;11742;53.532;-1.478;2023-02-28T00:57:55;11.00;83.50
23147;DHT22;11742;53.532;-1.478;2023-02-28T01:00:39;11.00;83.50
23147;DHT22;11742;53.532;-1.478;2023-02-28T01:03:24;11.00;83.50
23147;DHT22;11742;53.532;-1.478;2023-02-28T01:06:08;11.00;83.60
23147;DHT22;11742;53.532;-1.478;2023-02-28T01:08:52;11.00;83.60
23147;DHT22;11742;53.532;-1.478;2023-02-28T01:11:36;10.90;83.50
23147;DHT22;11742;53.532;-1.478;2023-02-28T01:14:21;11.00;83.50
23147;DHT22;11742;53.532;-1.478;2023-02-28T01:17:05;11.00;83.50
23147;DHT22;11742;53.532;-1.478;2023-02-28T01:19:52;10.90;83.40
23147;DHT22;11742;53.532;-1.478;2023-02-28T01:22:36;11.00;84.00
23147;DHT22;11742;53.532;-1.478;2023-02-28T01:25:20;10.90;83.40
23147;DHT22;11742;53.532;-1.478;2023-02-28T01:28:05;10.90;83.50
23147;DHT22;11742;53.532;-1.478;2023-02-28T01:30:50;10.90;83.50
23147;DHT22;11742;53.532;-1.478;2023-02-28T01:33:34;10.90;83.60
23147;DHT22;11742;53.532;-1.478;2023-02-28T01:36:20;10.80;83.50
23147;DHT22;11742;53.532;-1.478;2023-02-28T01:39:05;10.80;83.50
23147;DHT22;11742;53.532;-1.478;2023-02-28T01:41:49;10.80;83.50
23147;DHT22;11742;53.532;-1.478;2023-02-28T01:47:38;10.80;83.60
23147;DHT22;11742;53.532;-1.478;2023-02-28T01:50:25;10.80;83.70
23147;DHT22;11742;53.532;-1.478;2023-02-28T01:53:11;10.80;83.80
23147;DHT22;11742;53.532;-1.478;2023-02-28T01:55:57;10.80;83.80
23147;DHT22;11742;53.532;-1.478;2023-02-28T01:58:42;10.80;83.80
23147;DHT22;11742;53.532;-1.478;2023-02-28T02:01:26;10.80;83.90
23147;DHT22;11742;53.532;-1.478;2023-02-28T02:04:11;10.80;83.90
23147;DHT22;11742;53.532;-1.478;2023-02-28T02:06:55;10.80;83.90
23147;DHT22;11742;53.532;-1.478;2023-02-28T02:09:39;10.70;83.90
23147;DHT22;11742;53.532;-1.478;2023-02-28T02:12:26;10.80;84.00
23147;DHT22;11742;53.532;-1.478;2023-02-28T02:15:14;10.80;84.00
23147;DHT22;11742;53.532;-1.478;2023-02-28T02:18:02;10.80;84.10
23147;DHT22;11742;53.532;-1.478;2023-02-28T02:38:14;10.70;84.20
23147;DHT22;11742;53.532;-1.478;2023-02-28T02:43:53;10.70;84.10
23147;DHT22;11742;53.532;-1.478;2023-02-28T02:46:43;10.70;84.20
23147;DHT22;11742;53.532;-1.478;2023-02-28T02:49:29;10.60;84.30
23147;DHT22;11742;53.532;-1.478;2023-02-28T02:52:15;10.70;84.30
23147;DHT22;11742;53.532;-1.478;2023-02-28T02:55:00;10.60;84.40
23147;DHT22;11742;53.532;-1.478;2023-02-28T02:57:47;10.60;84.40
23147;DHT22;11742;53.532;-1.478;2023-02-28T03:00:37;10.60;84.40
23147;DHT22;11742;53.532;-1.478;2023-02-28T03:03:22;10.70;84.50
23147;DHT22;11742;53.532;-1.478;2023-02-28T03:06:12;10.60;84.50
23147;DHT22;11742;53.532;-1.478;2023-02-28T03:08:56;10.60;84.50
23147;DHT22;11742;53.532;-1.478;2023-02-28T03:11:40;10.60;84.50
23147;DHT22;11742;53.532;-1.478;2023-02-28T03:14:32;10.60;84.60
23147;DHT22;11742;53.532;-1.478;2023-02-28T03:24:10;10.60;84.80
23147;DHT22;11742;53.532;-1.478;2023-02-28T03:26:57;10.60;84.80
23147;DHT22;11742;53.532;-1.478;2023-02-28T03:29:46;10.60;84.80
23147;DHT22;11742;53.532;-1.478;2023-02-28T03:32:36;10.60;84.80
23147;DHT22;11742;53.532;-1.478;2023-02-28T03:35:27;10.60;84.80
23147;DHT22;11742;53.532;-1.478;2023-02-28T03:38:16;10.60;84.80
23147;DHT22;11742;53.532;-1.478;2023-02-28T03:41:15;10.60;84.80
23147;DHT22;11742;53.532;-1.478;2023-02-28T03:44:06;10.50;84.70
23147;DHT22;11742;53.532;-1.478;2023-02-28T03:47:00;10.60;84.80
23147;DHT22;11742;53.532;-1.478;2023-02-28T03:49:48;10.50;84.70
23147;DHT22;11742;53.532;-1.478;2023-02-28T03:52:34;10.60;84.80
23147;DHT22;11742;53.532;-1.478;2023-02-28T03:55:19;10.50;84.80
23147;DHT22;11742;53.532;-1.478;2023-02-28T04:01:25;10.50;84.90
23147;DHT22;11742;53.532;-1.478;2023-02-28T04:04:12;10.50;84.90
23147;DHT22;11742;53.532;-1.478;2023-02-28T04:07:00;10.50;85.00
23147;DHT22;11742;53.532;-1.478;2023-02-28T04:09:45;10.50;85.10
23147;DHT22;11742;53.532;-1.478;2023-02-28T04:12:30;10.50;85.00
23147;DHT22;11742;53.532;-1.478;2023-02-28T04:15:14;10.50;85.00
23147;DHT22;11742;53.532;-1.478;2023-02-28T04:17:58;10.50;85.00
23147;DHT22;11742;53.532;-1.478;2023-02-28T04:20:42;10.50;85.10
23147;DHT22;11742;53.532;-1.478;2023-02-28T04:23:27;10.50;85.10
23147;DHT22;11742;53.532;-1.478;2023-02-28T04:26:11;10.50;85.10
23147;DHT22;11742;53.532;-1.478;2023-02-28T04:28:55;10.50;85.20
23147;DHT22;11742;53.532;-1.478;2023-02-28T04:31:40;10.50;85.30
23147;DHT22;11742;53.532;-1.478;2023-02-28T04:34:28;10.50;85.20
23147;DHT22;11742;53.532;-1.478;2023-02-28T04:37:13;10.50;85.20
23147;DHT22;11742;53.532;-1.478;2023-02-28T04:39:57;10.50;85.10
23147;DHT22;11742;53.532;-1.478;2023-02-28T04:42:41;10.50;85.20
23147;DHT22;11742;53.532;-1.478;2023-02-28T04:45:26;10.50;85.30
23147;DHT22;11742;53.532;-1.478;2023-02-28T04:48:14;10.40;85.20
23147;DHT22;11742;53.532;-1.478;2023-02-28T04:51:05;10.50;85.30
23147;DHT22;11742;53.532;-1.478;2023-02-28T04:53:50;10.40;85.30
23147;DHT22;11742;53.532;-1.478;2023-02-28T04:56:34;10.50;85.50
23147;DHT22;11742;53.532;-1.478;2023-02-28T04:59:18;10.40;85.40
23147;DHT22;11742;53.532;-1.478;2023-02-28T05:02:02;10.40;85.40
23147;DHT22;11742;53.532;-1.478;2023-02-28T05:04:50;10.40;85.40
23147;DHT22;11742;53.532;-1.478;2023-02-28T05:07:35;10.40;85.40
23147;DHT22;11742;53.532;-1.478;2023-02-28T05:10:19;10.40;85.50
23147;DHT22;11742;53.532;-1.478;2023-02-28T05:13:03;10.40;85.60
23147;DHT22;11742;53.532;-1.478;2023-02-28T05:15:47;10.40;85.70
23147;DHT22;11742;53.532;-1.478;2023-02-28T05:18:32;10.40;85.60
23147;DHT22;11742;53.532;-1.478;2023-02-28T05:21:27;10.40;85.70
23147;DHT22;11742;53.532;-1.478;2023-02-28T05:24:11;10.40;85.60
23147;DHT22;11742;53.532;-1.478;2023-02-28T05:26:56;10.40;85.60
23147;DHT22;11742;53.532;-1.478;2023-02-28T05:29:40;10.40;85.70
23147;DHT22;11742;53.532;-1.478;2023-02-28T05:32:27;10.40;85.60
23147;DHT22;11742;53.532;-1.478;2023-02-28T05:35:11;10.40;85.70
23147;DHT22;11742;53.532;-1.478;2023-02-28T05:37:56;10.40;85.60
23147;DHT22;11742;53.532;-1.478;2023-02-28T05:40:40;10.40;85.80
23147;DHT22;11742;53.532;-1.478;2023-02-28T05:43:24;10.40;85.80
23147;DHT22;11742;53.532;-1.478;2023-02-28T05:46:09;10.30;85.60
23147;DHT22;11742;53.532;-1.478;2023-02-28T05:48:54;10.40;85.90
23147;DHT22;11742;53.532;-1.478;2023-02-28T05:51:39;10.30;85.80
23147;DHT22;11742;53.532;-1.478;2023-02-28T05:54:23;10.30;85.80
23147;DHT22;11742;53.532;-1.478;2023-02-28T05:57:08;10.30;85.80
23147;DHT22;11742;53.532;-1.478;2023-02-28T05:59:52;10.30;85.80
23147;DHT22;11742;53.532;-1.478;2023-02-28T06:02:38;10.30;85.80
23147;DHT22;11742;53.532;-1.478;2023-02-28T06:05:22;10.30;85.80
23147;DHT22;11742;53.532;-1.478;2023-02-28T06:08:06;10.30;85.80
23147;DHT22;11742;53.532;-1.478;2023-02-28T06:10:51;10.30;85.80
23147;DHT22;11742;53.532;-1.478;2023-02-28T06:13:35;10.30;86.00
23147;DHT22;11742;53.532;-1.478;2023-02-28T06:16:20;10.30;86.10
23147;DHT22;11742;53.532;-1.478;2023-02-28T06:19:04;10.30;86.00
23147;DHT22;11742;53.532;-1.478;2023-02-28T06:21:49;10.30;85.90
23147;DHT22;11742;53.532;-1.478;2023-02-28T06:24:34;10.30;86.00
23147;DHT22;11742;53.532;-1.478;2023-02-28T06:27:19;10.30;86.00
23147;DHT22;11742;53.532;-1.478;2023-02-28T06:30:04;10.30;85.90
23147;DHT22;11742;53.532;-1.478;2023-02-28T06:32:48;10.30;86.10
23147;DHT22;11742;53.532;-1.478;2023-02-28T06:35:33;10.30;86.00
23147;DHT22;11742;53.532;-1.478;2023-02-28T06:38:17;10.30;86.00
23147;DHT22;11742;53.532;-1.478;2023-02-28T06:41:02;10.30;86.00
23147;DHT22;11742;53.532;-1.478;2023-02-28T06:43:46;10.30;86.00
23147;DHT22;11742;53.532;-1.478;2023-02-28T06:46:31;10.30;86.00
23147;DHT22;11742;53.532;-1.478;2023-02-28T06:49:15;10.30;85.90
23147;DHT22;11742;53.532;-1.478;2023-02-28T06:51:59;10.30;85.80
23147;DHT22;11742;53.532;-1.478;2023-02-28T06:54:44;10.30;85.80
23147;DHT22;11742;53.532;-1.478;2023-02-28T06:57:29;10.30;85.80
23147;DHT22;11742;53.532;-1.478;2023-02-28T07:00:15;10.30;85.80
23147;DHT22;11742;53.532;-1.478;2023-02-28T07:02:59;10.30;85.90
23147;DHT22;11742;53.532;-1.478;2023-02-28T07:05:43;10.30;85.90
23147;DHT22;11742;53.532;-1.478;2023-02-28T07:08:28;10.30;86.00
23147;DHT22;11742;53.532;-1.478;2023-02-28T07:11:12;10.30;86.00
23147;DHT22;11742;53.532;-1.478;2023-02-28T07:13:56;10.30;85.80
23147;DHT22;11742;53.532;-1.478;2023-02-28T07:16:40;10.30;85.90
23147;DHT22;11742;53.532;-1.478;2023-02-28T07:19:24;10.30;86.00
23147;DHT22;11742;53.532;-1.478;2023-02-28T07:22:09;10.30;85.80
23147;DHT22;11742;53.532;-1.478;2023-02-28T07:24:53;10.30;85.80
23147;DHT22;11742;53.532;-1.478;2023-02-28T07:27:37;10.20;85.80
23147;DHT22;11742;53.532;-1.478;2023-02-28T07:30:21;10.30;86.00
23147;DHT22;11742;53.532;-1.478;2023-02-28T07:33:06;10.30;86.10
23147;DHT22;11742;53.532;-1.478;2023-02-28T07:35:50;10.30;86.10
23147;DHT22;11742;53.532;-1.478;2023-02-28T07:38:35;10.30;86.10
23147;DHT22;11742;53.532;-1.478;2023-02-28T07:41:20;10.20;85.90
23147;DHT22;11742;53.532;-1.478;2023-02-28T07:44:05;10.30;86.10
23147;DHT22;11742;53.532;-1.478;2023-02-28T07:46:50;10.20;86.20
23147;DHT22;11742;53.532;-1.478;2023-02-28T07:49:37;10.20;86.30
23147;DHT22;11742;53.532;-1.478;2023-02-28T07:52:21;10.30;86.30
23147;DHT22;11742;53.532;-1.478;2023-02-28T07:55:08;10.20;86.20
23147;DHT22;11742;53.532;-1.478;2023-02-28T07:57:52;10.30;86.40
23147;DHT22;11742;53.532;-1.478;2023-02-28T08:00:36;10.20;86.40
23147;DHT22;11742;53.532;-1.478;2023-02-28T08:03:21;10.30;86.40
23147;DHT22;11742;53.532;-1.478;2023-02-28T08:06:06;10.20;86.50
23147;DHT22;11742;53.532;-1.478;2023-02-28T08:08:50;10.30;86.60
23147;DHT22;11742;53.532;-1.478;2023-02-28T08:11:35;10.20;86.40
23147;DHT22;11742;53.532;-1.478;2023-02-28T08:14:20;10.30;86.50
23147;DHT22;11742;53.532;-1.478;2023-02-28T08:17:04;10.20;86.40
23147;DHT22;11742;53.532;-1.478;2023-02-28T08:19:48;10.20;86.50
23147;DHT22;11742;53.532;-1.478;2023-02-28T08:22:33;10.20;86.50
23147;DHT22;11742;53.532;-1.478;2023-02-28T08:25:17;10.20;86.70
23147;DHT22;11742;53.532;-1.478;2023-02-28T08:28:02;10.20;86.80
23147;DHT22;11742;53.532;-1.478;2023-02-28T08:30:46;10.30;86.70
23147;DHT22;11742;53.532;-1.478;2023-02-28T08:33:30;10.20;86.60
23147;DHT22;11742;53.532;-1.478;2023-02-28T08:36:15;10.30;86.70
23147;DHT22;11742;53.532;-1.478;2023-02-28T08:38:59;10.20;86.80
23147;DHT22;11742;53.532;-1.478;2023-02-28T08:41:43;10.20;86.70
23147;DHT22;11742;53.532;-1.478;2023-02-28T08:44:27;10.30;86.80
23147;DHT22;11742;53.532;-1.478;2023-02-28T08:47:12;10.30;86.90
23147;DHT22;11742;53.532;-1.478;2023-02-28T08:49:56;10.30;87.00
23147;DHT22;11742;53.532;-1.478;2023-02-28T08:52:43;10.30;87.20
23147;DHT22;11742;53.532;-1.478;2023-02-28T08:55:28;10.30;87.40
23147;DHT22;11742;53.532;-1.478;2023-02-28T08:58:12;10.30;87.20
23147;DHT22;11742;53.532;-1.478;2023-02-28T09:00:56;10.30;87.10
23147;DHT22;11742;53.532;-1.478;2023-02-28T09:03:41;10.30;87.10
23147;DHT22;11742;53.532;-1.478;2023-02-28T09:06:26;10.30;87.20
23147;DHT22;11742;53.532;-1.478;2023-02-28T09:09:10;10.30;87.20
23147;DHT22;11742;53.532;-1.478;2023-02-28T09:11:58;10.30;87.30
23147;DHT22;11742;53.532;-1.478;2023-02-28T09:14:42;10.30;87.20
23147;DHT22;11742;53.532;-1.478;2023-02-28T09:17:27;10.30;87.40
23147;DHT22;11742;53.532;-1.478;2023-02-28T09:20:11;10.30;87.30
23147;DHT22;11742;53.532;-1.478;2023-02-28T09:22:56;10.30;87.20
23147;DHT22;11742;53.532;-1.478;2023-02-28T09:25:50;10.30;87.30
23147;DHT22;11742;53.532;-1.478;2023-02-28T09:28:34;10.30;87.50
23147;DHT22;11742;53.532;-1.478;2023-02-28T09:31:20;10.40;87.30
23147;DHT22;11742;53.532;-1.478;2023-02-28T09:34:04;10.30;87.20
23147;DHT22;11742;53.532;-1.478;2023-02-28T09:36:49;10.40;87.50
23147;DHT22;11742;53.532;-1.478;2023-02-28T09:39:34;10.40;87.70
23147;DHT22;11742;53.532;-1.478;2023-02-28T09:42:25;10.40;87.60
23147;DHT22;11742;53.532;-1.478;2023-02-28T09:45:31;10.40;87.70
23147;DHT22;11742;53.532;-1.478;2023-02-28T09:48:23;10.40;87.70
23147;DHT22;11742;53.532;-1.478;2023-02-28T09:51:20;10.40;87.70
23147;DHT22;11742;53.532;-1.478;2023-02-28T09:54:10;10.40;87.70
23147;DHT22;11742;53.532;-1.478;2023-02-28T09:56:57;10.50;87.80
23147;DHT22;11742;53.532;-1.478;2023-02-28T10:05:37;10.50;87.80
23147;DHT22;11742;53.532;-1.478;2023-02-28T10:08:27;10.50;87.80
23147;DHT22;11742;53.532;-1.478;2023-02-28T10:11:14;10.50;87.80
23147;DHT22;11742;53.532;-1.478;2023-02-28T10:14:19;10.60;87.80
23147;DHT22;11742;53.532;-1.478;2023-02-28T10:17:08;10.60;88.60
23147;DHT22;11742;53.532;-1.478;2023-02-28T10:20:14;10.60;89.20
23147;DHT22;11742;53.532;-1.478;2023-02-28T10:23:05;10.60;88.90
23147;DHT22;11742;53.532;-1.478;2023-02-28T10:25:59;10.60;88.60
23147;DHT22;11742;53.532;-1.478;2023-02-28T10:28:44;10.60;88.30
23147;DHT22;11742;53.532;-1.478;2023-02-28T10:31:28;10.70;88.40
23147;DHT22;11742;53.532;-1.478;2023-02-28T10:34:13;10.70;88.60
23147;DHT22;11742;53.532;-1.478;2023-02-28T10:36:57;10.70;89.00
23147;DHT22;11742;53.532;-1.478;2023-02-28T10:39:51;10.70;89.10
23147;DHT22;11742;53.532;-1.478;2023-02-28T10:42:35;10.80;89.10
23147;DHT22;11742;53.532;-1.478;2023-02-28T10:45:22;10.80;88.70
23147;DHT22;11742;53.532;-1.478;2023-02-28T10:50:57;10.80;88.80
23147;DHT22;11742;53.532;-1.478;2023-02-28T10:56:26;10.80;88.70
23147;DHT22;11742;53.532;-1.478;2023-02-28T11:01:58;10.90;88.50
23147;DHT22;11742;53.532;-1.478;2023-02-28T11:04:42;10.90;88.60
23147;DHT22;11742;53.532;-1.478;2023-02-28T11:07:27;10.90;88.60
23147;DHT22;11742;53.532;-1.478;2023-02-28T11:10:18;10.90;88.80
23147;DHT22;11742;53.532;-1.478;2023-02-28T11:13:03;11.00;88.90
23147;DHT22;11742;53.532;-1.478;2023-02-28T11:15:51;11.00;88.60
23147;DHT22;11742;53.532;-1.478;2023-02-28T11:18:43;11.00;89.50
23147;DHT22;11742;53.532;-1.478;2023-02-28T11:21:34;11.00;90.00
23147;DHT22;11742;53.532;-1.478;2023-02-28T11:24:42;11.10;90.00
23147;DHT22;11742;53.532;-1.478;2023-02-28T11:30:25;11.20;89.00
23147;DHT22;11742;53.532;-1.478;2023-02-28T11:33:23;11.20;89.10
23147;DHT22;11742;53.532;-1.478;2023-02-28T11:36:10;11.20;88.80
23147;DHT22;11742;53.532;-1.478;2023-02-28T11:39:07;11.20;88.80
23147;DHT22;11742;53.532;-1.478;2023-02-28T11:45:13;11.30;89.50
23147;DHT22;11742;53.532;-1.478;2023-02-28T11:56:38;11.40;90.10
23147;DHT22;11742;53.532;-1.478;2023-02-28T12:02:51;11.40;89.70
23147;DHT22;11742;53.532;-1.478;2023-02-28T12:05:44;11.50;89.20
23147;DHT22;11742;53.532;-1.478;2023-02-28T12:28:49;11.70;90.50
23147;DHT22;11742;53.532;-1.478;2023-02-28T12:31:36;11.70;90.40
23147;DHT22;11742;53.532;-1.478;2023-02-28T12:34:21;11.80;90.30
23147;DHT22;11742;53.532;-1.478;2023-02-28T12:37:09;11.80;90.20
23147;DHT22;11742;53.532;-1.478;2023-02-28T12:39:55;11.80;90.10
23147;DHT22;11742;53.532;-1.478;2023-02-28T12:42:45;11.80;89.90
23147;DHT22;11742;53.532;-1.478;2023-02-28T12:48:25;11.90;90.10
23147;DHT22;11742;53.532;-1.478;2023-02-28T12:51:11;11.90;90.00
23147;DHT22;11742;53.532;-1.478;2023-02-28T12:54:14;11.90;89.80
23147;DHT22;11742;53.532;-1.478;2023-02-28T13:00:08;12.00;89.70
23147;DHT22;11742;53.532;-1.478;2023-02-28T13:12:00;12.00;89.90
23147;DHT22;11742;53.532;-1.478;2023-02-28T13:14:37;12.00;90.00
23147;DHT22;11742;53.532;-1.478;2023-02-28T13:17:23;12.00;89.80
23147;DHT22;11742;53.532;-1.478;2023-02-28T13:20:20;12.00;89.80
23147;DHT22;11742;53.532;-1.478;2023-02-28T13:23:04;12.00;89.70
23147;DHT22;11742;53.532;-1.478;2023-02-28T13:26:08;12.10;89.90
23147;DHT22;11742;53.532;-1.478;2023-02-28T13:34:41;12.10;90.50
23147;DHT22;11742;53.532;-1.478;2023-02-28T13:37:32;12.10;90.40
23147;DHT22;11742;53.532;-1.478;2023-02-28T13:43:07;12.20;90.00
23147;DHT22;11742;53.532;-1.478;2023-02-28T13:46:06;12.20;90.00
23147;DHT22;11742;53.532;-1.478;2023-02-28T13:48:51;12.20;89.60
23147;DHT22;11742;53.532;-1.478;2023-02-28T13:51:46;12.20;89.40
23147;DHT22;11742;53.532;-1.478;2023-02-28T13:57:30;12.20;89.20
23147;DHT22;11742;53.532;-1.478;2023-02-28T14:00:22;12.20;89.20
23147;DHT22;11742;53.532;-1.478;2023-02-28T14:03:17;12.20;88.90
23147;DHT22;11742;53.532;-1.478;2023-02-28T14:06:08;12.20;88.70
23147;DHT22;11742;53.532;-1.478;2023-02-28T14:08:58;12.20;88.80
23147;DHT22;11742;53.532;-1.478;2023-02-28T14:11:43;12.20;88.80
23147;DHT22;11742;53.532;-1.478;2023-02-28T14:17:18;12.20;88.60
23147;DHT22;11742;53.532;-1.478;2023-02-28T14:20:02;12.20;88.60
23147;DHT22;11742;53.532;-1.478;2023-02-28T14:22:53;12.20;88.40
23147;DHT22;11742;53.532;-1.478;2023-02-28T14:25:46;12.20;88.60
23147;DHT22;11742;53.532;-1.478;2023-02-28T14:31:39;12.20;88.40
23147;DHT22;11742;53.532;-1.478;2023-02-28T14:34:41;12.20;88.20
23147;DHT22;11742;53.532;-1.478;2023-02-28T14:37:28;12.20;88.00
23147;DHT22;11742;53.532;-1.478;2023-02-28T14:40:17;12.20;87.90
23147;DHT22;11742;53.532;-1.478;2023-02-28T14:43:04;12.20;87.80
23147;DHT22;11742;53.532;-1.478;2023-02-28T14:45:52;12.20;87.70
23147;DHT22;11742;53.532;-1.478;2023-02-28T14:48:38;12.20;87.80
23147;DHT22;11742;53.532;-1.478;2023-02-28T14:51:23;12.20;87.90
23147;DHT22;11742;53.532;-1.478;2023-02-28T14:54:12;12.20;87.90
23147;DHT22;11742;53.532;-1.478;2023-02-28T14:56:57;12.20;88.00
23147;DHT22;11742;53.532;-1.478;2023-02-28T14:59:41;12.20;88.10
23147;DHT22;11742;53.532;-1.478;2023-02-28T15:02:25;12.20;88.00
23147;DHT22;11742;53.532;-1.478;2023-02-28T15:08:01;12.20;87.90
23147;DHT22;11742;53.532;-1.478;2023-02-28T15:10:59;12.20;87.80
23147;DHT22;11742;53.532;-1.478;2023-02-28T15:13:48;12.20;87.60
23147;DHT22;11742;53.532;-1.478;2023-02-28T15:16:42;12.20;87.50
23147;DHT22;11742;53.532;-1.478;2023-02-28T15:19:29;12.20;87.30
23147;DHT22;11742;53.532;-1.478;2023-02-28T15:22:15;12.20;87.30
23147;DHT22;11742;53.532;-1.478;2023-02-28T15:25:00;12.20;87.40
23147;DHT22;11742;53.532;-1.478;2023-02-28T15:27:55;12.30;87.40
23147;DHT22;11742;53.532;-1.478;2023-02-28T15:30:39;12.30;87.40
23147;DHT22;11742;53.532;-1.478;2023-02-28T15:33:33;12.20;87.20
23147;DHT22;11742;53.532;-1.478;2023-02-28T15:36:18;12.20;87.20
23147;DHT22;11742;53.532;-1.478;2023-02-28T15:42:22;12.20;87.30
23147;DHT22;11742;53.532;-1.478;2023-02-28T15:45:26;12.20;87.80
23147;DHT22;11742;53.532;-1.478;2023-02-28T15:48:53;12.20;87.70
23147;DHT22;11742;53.532;-1.478;2023-02-28T15:51:19;12.20;87.70
23147;DHT22;11742;53.532;-1.478;2023-02-28T15:54:08;12.20;87.80
23147;DHT22;11742;53.532;-1.478;2023-02-28T15:56:53;12.20;87.80
23147;DHT22;11742;53.532;-1.478;2023-02-28T15:59:39;12.20;87.80
23147;DHT22;11742;53.532;-1.478;2023-02-28T16:02:31;12.20;87.80
23147;DHT22;11742;53.532;-1.478;2023-02-28T16:05:23;12.20;87.70
23147;DHT22;11742;53.532;-1.478;2023-02-28T16:08:13;12.20;87.70
23147;DHT22;11742;53.532;-1.478;2023-02-28T16:10:58;12.20;87.70
23147;DHT22;11742;53.532;-1.478;2023-02-28T16:13:42;12.10;87.50
23147;DHT22;11742;53.532;-1.478;2023-02-28T16:16:26;12.10;87.50
23147;DHT22;11742;53.532;-1.478;2023-02-28T16:19:10;12.20;87.50
23147;DHT22;11742;53.532;-1.478;2023-02-28T16:21:55;12.20;87.40
23147;DHT22;11742;53.532;-1.478;2023-02-28T16:24:39;12.10;87.40
23147;DHT22;11742;53.532;-1.478;2023-02-28T16:27:31;12.20;87.30
23147;DHT22;11742;53.532;-1.478;2023-02-28T16:30:21;12.10;87.20
23147;DHT22;11742;53.532;-1.478;2023-02-28T16:33:07;12.10;87.20
23147;DHT22;11742;53.532;-1.478;2023-02-28T16:35:51;12.20;87.10
23147;DHT22;11742;53.532;-1.478;2023-02-28T16:38:36;12.20;87.10
23147;DHT22;11742;53.532;-1.478;2023-02-28T16:41:29;12.10;87.00
23147;DHT22;11742;53.532;-1.478;2023-02-28T16:44:29;12.10;86.90
23147;DHT22;11742;53.532;-1.478;2023-02-28T16:47:15;12.10;86.90
23147;DHT22;11742;53.532;-1.478;2023-02-28T16:49:59;12.10;87.00
23147;DHT22;11742;53.532;-1.478;2023-02-28T16:52:43;12.10;86.90
23147;DHT22;11742;53.532;-1.478;2023-02-28T16:55:28;12.10;86.90
23147;DHT22;11742;53.532;-1.478;2023-02-28T16:58:15;12.10;86.90
23147;DHT22;11742;53.532;-1.478;2023-02-28T17:01:01;12.10;86.90
23147;DHT22;11742;53.532;-1.478;2023-02-28T17:03:46;12.10;86.90
23147;DHT22;11742;53.532;-1.478;2023-02-28T17:06:30;12.10;86.90
23147;DHT22;11742;53.532;-1.478;2023-02-28T17:09:19;12.10;86.80
23147;DHT22;11742;53.532;-1.478;2023-02-28T17:12:04;12.00;86.80
23147;DHT22;11742;53.532;-1.478;2023-02-28T17:14:48;12.10;86.80
23147;DHT22;11742;53.532;-1.478;2023-02-28T17:17:33;12.10;86.60
23147;DHT22;11742;53.532;-1.478;2023-02-28T17:20:19;12.00;86.50
23147;DHT22;11742;53.532;-1.478;2023-02-28T17:23:06;12.00;86.50
23147;DHT22;11742;53.532;-1.478;2023-02-28T17:25:50;12.00;86.50
23147;DHT22;11742;53.532;-1.478;2023-02-28T17:28:38;12.00;86.40
23147;DHT22;11742;53.532;-1.478;2023-02-28T17:31:22;12.00;86.30
23147;DHT22;11742;53.532;-1.478;2023-02-28T17:34:07;12.00;86.20
23147;DHT22;11742;53.532;-1.478;2023-02-28T17:36:52;12.00;86.10
23147;DHT22;11742;53.532;-1.478;2023-02-28T17:39:36;12.00;86.10
23147;DHT22;11742;53.532;-1.478;2023-02-28T17:42:20;12.00;86.20
23147;DHT22;11742;53.532;-1.478;2023-02-28T17:45:04;11.90;86.00
23147;DHT22;11742;53.532;-1.478;2023-02-28T17:47:49;11.90;86.00
23147;DHT22;11742;53.532;-1.478;2023-02-28T17:50:36;11.90;86.00
23147;DHT22;11742;53.532;-1.478;2023-02-28T17:53:20;11.90;86.00
23147;DHT22;11742;53.532;-1.478;2023-02-28T17:56:17;11.90;86.00
23147;DHT22;11742;53.532;-1.478;2023-02-28T17:59:02;11.90;86.10
23147;DHT22;11742;53.532;-1.478;2023-02-28T18:01:47;11.90;86.00
23147;DHT22;11742;53.532;-1.478;2023-02-28T18:04:31;11.90;86.00
23147;DHT22;11742;53.532;-1.478;2023-02-28T18:07:21;11.90;86.20
23147;DHT22;11742;53.532;-1.478;2023-02-28T18:10:06;11.90;86.00
23147;DHT22;11742;53.532;-1.478;2023-02-28T18:12:51;11.80;86.00
23147;DHT22;11742;53.532;-1.478;2023-02-28T18:15:35;11.80;86.00
23147;DHT22;11742;53.532;-1.478;2023-02-28T18:18:20;11.80;86.00
23147;DHT22;11742;53.532;-1.478;2023-02-28T18:21:04;11.80;85.90
23147;DHT22;11742;53.532;-1.478;2023-02-28T18:23:49;11.80;86.00
23147;DHT22;11742;53.532;-1.478;2023-02-28T18:26:36;11.70;85.90
23147;DHT22;11742;53.532;-1.478;2023-02-28T18:29:24;11.80;85.90
23147;DHT22;11742;53.532;-1.478;2023-02-28T18:32:08;11.70;85.90
23147;DHT22;11742;53.532;-1.478;2023-02-28T18:34:53;11.70;85.90
23147;DHT22;11742;53.532;-1.478;2023-02-28T18:37:37;11.70;85.90
23147;DHT22;11742;53.532;-1.478;2023-02-28T18:40:21;11.70;85.90
23147;DHT22;11742;53.532;-1.478;2023-02-28T18:43:05;11.70;86.00
23147;DHT22;11742;53.532;-1.478;2023-02-28T18:45:49;11.70;86.00
23147;DHT22;11742;53.532;-1.478;2023-02-28T18:48:34;11.70;86.00
23147;DHT22;11742;53.532;-1.478;2023-02-28T18:51:20;11.70;85.90
23147;DHT22;11742;53.532;-1.478;2023-02-28T18:54:04;11.60;85.90
23147;DHT22;11742;53.532;-1.478;2023-02-28T18:56:49;11.60;85.90
23147;DHT22;11742;53.532;-1.478;2023-02-28T18:59:33;11.60;85.90
23147;DHT22;11742;53.532;-1.478;2023-02-28T19:02:18;11.60;85.90
23147;DHT22;11742;53.532;-1.478;2023-02-28T19:05:02;11.60;86.00
23147;DHT22;11742;53.532;-1.478;2023-02-28T19:07:46;11.60;85.90
23147;DHT22;11742;53.532;-1.478;2023-02-28T19:10:30;11.60;86.00
23147;DHT22;11742;53.532;-1.478;2023-02-28T19:13:15;11.60;86.00
23147;DHT22;11742;53.532;-1.478;2023-02-28T19:16:00;11.50;86.00
23147;DHT22;11742;53.532;-1.478;2023-02-28T19:18:45;11.60;86.00